Time;durP1;ratioP1;P1;durP2;ratioP2;P2;SDS_P1;SDS_P2;PMS_P1;PMS_P2;Temp;Humidity;BMP_temperature;BMP_pressure;BME280_temperature;BME280_humidity;BME280_pressure;Samples;Min_cycle;Max_cycle;Signal;HPM_P1;HPM_P2
2023/02/28 00:00:00;;;;;;;1.80;1.70;;;0.80;98.20;;;;;;5045103;28;20468;-71
2023/02/28 00:02:27;;;;;;;1.70;1.60;;;0.80;98.20;;;;;;5036878;28;20493;-71
2023/02/28 00:07:28;;;;;;;1.80;1.70;;;0.80;98.20;;;;;;5043779;28;20489;-74
2023/02/28 00:09:55;;;;;;;1.80;1.70;;;0.70;98.20;;;;;;5052260;28;20469;-74
2023/02/28 00:12:23;;;;;;;1.70;1.60;;;0.70;98.20;;;;;;5053257;28;20498;-74
2023/02/28 00:14:50;;;;;;;1.70;1.60;;;0.70;98.20;;;;;;5056527;28;20470;-74
2023/02/28 00:17:17;;;;;;;1.70;1.60;;;0.70;98.20;;;;;;5057553;28;20481;-74
2023/02/28 00:19:44;;;;;;;1.80;1.70;;;0.70;98.20;;;;;;5049675;28;20871;-76
2023/02/28 00:22:11;;;;;;;1.70;1.60;;;0.60;98.20;;;;;;5047522;28;20477;-74
2023/02/28 00:24:38;;;;;;;1.80;1.70;;;0.60;98.20;;;;;;5062760;28;20467;-75
2023/02/28 00:27:04;;;;;;;1.70;1.60;;;0.60;98.20;;;;;;5041182;28;20489;-74
2023/02/28 00:29:32;;;;;;;1.80;1.70;;;0.50;98.20;;;;;;5063564;28;20464;-74
2023/02/28 00:31:59;;;;;;;1.70;1.60;;;0.50;98.20;;;;;;5049591;28;20477;-74
2023/02/28 00:34:26;;;;;;;1.70;1.60;;;0.50;98.20;;;;;;5058498;28;20676;-74
2023/02/28 00:36:53;;;;;;;1.70;1.60;;;0.50;98.20;;;;;;5049197;28;20477;-74
2023/02/28 00:39:20;;;;;;;1.70;1.60;;;0.50;98.20;;;;;;5053666;28;20519;-74
2023/02/28 00:41:51;;;;;;;1.80;1.70;;;0.50;98.20;;;;;;5054271;28;20488;-74
2023/02/28 00:44:21;;;;;;;1.70;1.60;;;0.50;98.20;;;;;;5053308;28;20466;-74
2023/02/28 00:46:49;;;;;;;1.70;1.60;;;0.50;98.20;;;;;;5047828;28;20484;-74
2023/02/28 00:49:16;;;;;;;1.70;1.60;;;0.50;98.20;;;;;;5054229;28;21015;-74
2023/02/28 00:51:42;;;;;;;1.70;1.60;;;0.50;98.20;;;;;;5038959;28;20483;-74
2023/02/28 00:54:09;;;;;;;1.70;1.60;;;0.50;98.20;;;;;;5052930;28;20458;-74
2023/02/28 00:56:36;;;;;;;1.70;1.60;;;0.50;98.20;;;;;;5045296;28;20493;-74
2023/02/28 00:59:03;;;;;;;1.70;1.60;;;0.50;98.20;;;;;;5060983;28;20458;-74
2023/02/28 01:01:29;;;;;;;1.70;1.60;;;0.50;98.20;;;;;;5036643;28;21031;-74
2023/02/28 01:03:57;;;;;;;1.60;1.50;;;0.40;98.20;;;;;;5054060;28;20542;-74
2023/02/28 01:06:24;;;;;;;2.00;1.90;;;0.40;98.20;;;;;;5044777;28;20480;-74
2023/02/28 01:08:51;;;;;;;1.60;1.50;;;0.40;98.20;;;;;;5055149;28;20490;-74
2023/02/28 01:11:18;;;;;;;1.67;1.57;;;0.40;98.20;;;;;;5046221;28;20480;-74
2023/02/28 01:13:46;;;;;;;1.70;1.60;;;0.40;98.20;;;;;;5064446;28;20864;-74
2023/02/28 01:16:14;;;;;;;1.80;1.70;;;0.40;98.20;;;;;;5049909;28;20478;-74
2023/02/28 01:18:41;;;;;;;2.30;2.10;;;0.40;98.20;;;;;;5064714;28;20462;-74
2023/02/28 01:21:12;;;;;;;1.90;1.80;;;0.40;98.20;;;;;;5055455;28;20466;-74
2023/02/28 01:23:39;;;;;;;1.70;1.60;;;0.40;98.20;;;;;;5062923;28;20464;-74
2023/02/28 01:26:06;;;;;;;1.70;1.60;;;0.30;98.20;;;;;;5042612;28;20503;-76
2023/02/28 01:28:33;;;;;;;1.70;1.60;;;0.30;98.20;;;;;;5070331;28;20485;-74
2023/02/28 01:31:00;;;;;;;1.70;1.60;;;0.30;98.20;;;;;;5047893;28;20572;-74
2023/02/28 01:33:28;;;;;;;1.73;1.63;;;0.30;98.20;;;;;;5067222;28;20939;-74
2023/02/28 01:35:59;;;;;;;1.60;1.50;;;0.30;98.20;;;;;;5044046;28;20510;-74
2023/02/28 01:38:27;;;;;;;1.70;1.60;;;0.30;98.20;;;;;;5067771;28;20461;-74
2023/02/28 01:40:54;;;;;;;1.80;1.70;;;0.20;98.20;;;;;;5046627;28;20469;-74
2023/02/28 01:43:25;;;;;;;1.80;1.70;;;0.20;98.20;;;;;;5069074;28;20466;-74
2023/02/28 01:45:52;;;;;;;1.80;1.70;;;0.20;98.20;;;;;;5039986;28;20488;-74
2023/02/28 01:48:20;;;;;;;1.73;1.63;;;0.20;98.20;;;;;;5069588;28;20493;-74
2023/02/28 01:50:48;;;;;;;1.87;1.77;;;0.20;98.20;;;;;;5055405;28;20962;-74
2023/02/28 01:53:18;;;;;;;1.70;1.60;;;0.20;98.20;;;;;;5063597;28;20476;-74
2023/02/28 01:55:51;;;;;;;1.70;1.60;;;0.20;98.20;;;;;;5057190;28;20489;-74
2023/02/28 01:58:18;;;;;;;1.70;1.60;;;0.20;98.20;;;;;;5040986;28;20474;-74
2023/02/28 02:00:46;;;;;;;1.80;1.70;;;0.20;98.20;;;;;;5064283;28;20460;-76
2023/02/28 02:03:18;;;;;;;1.90;1.80;;;0.20;98.20;;;;;;5038725;28;20553;-79
2023/02/28 02:05:47;;;;;;;1.80;1.70;;;0.10;98.20;;;;;;5046748;28;20497;-77
2023/02/28 02:08:19;;;;;;;7.00;6.50;;;0.10;98.20;;;;;;5006621;28;20563;-77
2023/02/28 02:10:50;;;;;;;1.80;1.70;;;0.10;98.20;;;;;;5045033;28;21022;-76
2023/02/28 02:13:35;;;;;;;1.70;1.60;;;0.10;98.20;;;;;;5013087;28;20532;-77
2023/02/28 02:16:14;;;;;;;1.80;1.70;;;0.10;98.20;;;;;;5035437;28;20529;-77
2023/02/28 02:18:47;;;;;;;1.77;1.67;;;0.10;98.20;;;;;;5069810;28;20458;-80
2023/02/28 02:21:43;;;;;;;1.80;1.70;;;0.10;98.20;;;;;;5055782;28;20497;-77
2023/02/28 02:24:32;;;;;;;2.03;1.93;;;0.10;98.20;;;;;;5069824;28;20532;-75
2023/02/28 02:27:23;;;;;;;1.80;1.70;;;0.10;98.20;;;;;;5035620;28;20480;-77
2023/02/28 02:30:15;;;;;;;1.70;1.60;;;0.00;98.20;;;;;;5053696;28;20460;-77
2023/02/28 02:33:15;;;;;;;2.03;1.93;;;0.00;98.20;;;;;;5065923;28;20492;-79
2023/02/28 02:35:49;;;;;;;1.70;1.60;;;0.00;98.20;;;;;;5065190;28;20481;-77
2023/02/28 02:38:22;;;;;;;1.77;1.67;;;0.00;98.20;;;;;;5032216;28;20470;-75
2023/02/28 02:40:56;;;;;;;1.90;1.80;;;0.00;98.20;;;;;;5040194;28;20458;-75
2023/02/28 02:43:30;;;;;;;1.80;1.70;;;-0.10;98.20;;;;;;5062740;28;20675;-74
2023/02/28 02:46:03;;;;;;;1.80;1.70;;;-0.10;98.20;;;;;;5047108;28;20485;-75
2023/02/28 02:48:34;;;;;;;1.70;1.60;;;-0.20;98.20;;;;;;5072942;28;20485;-75
2023/02/28 02:51:11;;;;;;;1.60;1.50;;;-0.20;98.20;;;;;;5050381;28;20465;-74
2023/02/28 02:53:49;;;;;;;1.70;1.60;;;-0.30;98.20;;;;;;5072165;28;20461;-75
2023/02/28 02:56:19;;;;;;;2.00;1.90;;;-0.30;98.20;;;;;;5032923;28;20477;-75
2023/02/28 02:58:50;;;;;;;1.80;1.70;;;-0.30;98.20;;;;;;5056379;28;20454;-74
2023/02/28 03:01:27;;;;;;;1.80;1.70;;;-0.40;98.20;;;;;;5045242;28;20476;-75
2023/02/28 03:03:55;;;;;;;1.70;1.60;;;-0.40;98.20;;;;;;5066944;28;20561;-75
2023/02/28 03:06:23;;;;;;;1.70;1.60;;;-0.40;98.20;;;;;;5046889;28;20594;-75
2023/02/28 03:08:50;;;;;;;1.80;1.70;;;-0.40;98.20;;;;;;5069553;28;20477;-75
2023/02/28 03:11:18;;;;;;;1.90;1.80;;;-0.40;98.20;;;;;;5056236;28;20529;-74
2023/02/28 03:13:59;;;;;;;1.80;1.70;;;-0.50;98.20;;;;;;5066418;28;20548;-77
2023/02/28 03:17:02;;;;;;;1.77;1.67;;;-0.50;98.20;;;;;;5050808;28;21123;-74
2023/02/28 03:19:52;;;;;;;1.77;1.67;;;-0.50;98.20;;;;;;5039784;28;20473;-74
2023/02/28 03:22:37;;;;;;;1.90;1.80;;;-0.50;98.20;;;;;;5044124;28;20536;-75
2023/02/28 03:25:09;;;;;;;1.80;1.70;;;-0.60;98.20;;;;;;5041880;28;21204;-75
2023/02/28 03:27:41;;;;;;;1.80;1.70;;;-0.60;98.20;;;;;;5033647;28;20863;-74
2023/02/28 03:30:16;;;;;;;1.70;1.60;;;-0.60;98.20;;;;;;5046732;28;20544;-74
2023/02/28 03:32:51;;;;;;;1.80;1.70;;;-0.60;98.20;;;;;;5041918;28;21006;-74
2023/02/28 03:35:22;;;;;;;1.80;1.70;;;-0.60;98.20;;;;;;5049720;28;20485;-74
2023/02/28 03:37:54;;;;;;;1.70;1.60;;;-0.60;98.20;;;;;;5039005;28;20509;-74
2023/02/28 03:40:23;;;;;;;1.80;1.70;;;-0.60;98.20;;;;;;5047976;28;20974;-74
2023/02/28 03:42:56;;;;;;;1.90;1.80;;;-0.60;98.20;;;;;;5039516;28;20485;-74
2023/02/28 03:45:25;;;;;;;1.80;1.70;;;-0.60;98.20;;;;;;5047826;28;20483;-74
2023/02/28 03:47:54;;;;;;;1.80;1.70;;;-0.60;98.20;;;;;;5039713;28;20828;-74
2023/02/28 03:50:25;;;;;;;1.83;1.73;;;-0.60;98.20;;;;;;5048919;28;20481;-74
2023/02/28 03:53:04;;;;;;;1.80;1.70;;;-0.60;98.20;;;;;;5062067;28;21004;-74
2023/02/28 03:55:35;;;;;;;1.70;1.60;;;-0.60;98.20;;;;;;5053205;28;20474;-74
2023/02/28 03:58:09;;;;;;;1.80;1.70;;;-0.60;98.20;;;;;;5039783;28;20929;-75
2023/02/28 04:00:39;;;;;;;2.03;1.93;;;-0.60;98.20;;;;;;5045688;28;21013;-74
2023/02/28 04:03:06;;;;;;;1.80;1.70;;;-0.60;98.20;;;;;;5039053;28;20492;-75
2023/02/28 04:05:44;;;;;;;1.90;1.80;;;-0.60;98.20;;;;;;5047616;28;20499;-74
2023/02/28 04:08:12;;;;;;;1.87;1.77;;;-0.70;98.20;;;;;;5061520;28;20480;-75
2023/02/28 04:10:40;;;;;;;1.80;1.70;;;-0.70;98.20;;;;;;5048254;28;20458;-74
2023/02/28 04:13:07;;;;;;;1.77;1.67;;;-0.70;98.20;;;;;;5043221;28;20478;-74
2023/02/28 04:15:33;;;;;;;1.70;1.60;;;-0.70;98.20;;;;;;5050031;28;20490;-74
2023/02/28 04:18:00;;;;;;;1.90;1.80;;;-0.70;98.20;;;;;;5039267;28;20486;-74
2023/02/28 04:20:27;;;;;;;1.80;1.70;;;-0.70;98.20;;;;;;5052421;28;20973;-74
2023/02/28 04:22:54;;;;;;;1.80;1.70;;;-0.70;98.20;;;;;;5039643;28;20486;-74
2023/02/28 04:25:22;;;;;;;1.90;1.80;;;-0.70;98.20;;;;;;5050139;28;20628;-73
2023/02/28 04:27:48;;;;;;;1.90;1.80;;;-0.70;98.20;;;;;;5043574;28;20478;-74
2023/02/28 04:30:15;;;;;;;1.80;1.70;;;-0.80;98.20;;;;;;5049979;28;20465;-74
2023/02/28 04:32:42;;;;;;;1.80;1.70;;;-0.80;98.20;;;;;;5053867;28;20866;-74
2023/02/28 04:35:09;;;;;;;1.70;1.60;;;-0.80;98.20;;;;;;5046846;28;20468;-74
2023/02/28 04:37:51;;;;;;;1.77;1.67;;;-0.80;98.20;;;;;;5041760;28;20490;-74
2023/02/28 04:40:24;;;;;;;1.70;1.60;;;-0.80;98.20;;;;;;5049908;28;20970;-74
2023/02/28 04:42:51;;;;;;;1.70;1.60;;;-0.80;98.20;;;;;;5048739;28;20482;-74
2023/02/28 04:45:18;;;;;;;1.80;1.70;;;-0.80;98.20;;;;;;5059378;28;20514;-73
2023/02/28 04:47:44;;;;;;;1.80;1.70;;;-0.90;98.20;;;;;;5040773;28;20627;-75
2023/02/28 04:50:11;;;;;;;1.90;1.80;;;-0.90;98.20;;;;;;5051753;28;21097;-74
2023/02/28 04:52:38;;;;;;;1.70;1.60;;;-0.90;98.20;;;;;;5021304;28;20486;-73
2023/02/28 04:55:06;;;;;;;1.80;1.70;;;-0.90;98.20;;;;;;5029238;28;20463;-74
2023/02/28 04:57:34;;;;;;;1.80;1.70;;;-0.90;98.20;;;;;;5038722;28;20486;-74
2023/02/28 05:00:01;;;;;;;1.90;1.80;;;-0.90;98.20;;;;;;5052398;28;20453;-74
2023/02/28 05:02:27;;;;;;;1.80;1.70;;;-1.00;98.20;;;;;;5050399;28;20493;-74
2023/02/28 05:04:54;;;;;;;1.90;1.80;;;-1.00;98.20;;;;;;5055235;28;20458;-74
2023/02/28 05:07:21;;;;;;;1.87;1.77;;;-1.00;98.20;;;;;;5047177;28;20488;-73
2023/02/28 05:09:48;;;;;;;1.80;1.70;;;-1.00;98.20;;;;;;5053132;28;20486;-74
2023/02/28 05:12:15;;;;;;;1.90;1.80;;;-1.00;98.20;;;;;;5046336;28;20845;-73
2023/02/28 05:14:44;;;;;;;1.90;1.80;;;-1.00;98.20;;;;;;5060281;28;20457;-74
2023/02/28 05:17:11;;;;;;;1.80;1.70;;;-1.00;98.20;;;;;;5044196;28;20481;-74
2023/02/28 05:19:37;;;;;;;1.80;1.70;;;-1.00;98.20;;;;;;5059119;28;20462;-73
2023/02/28 05:22:04;;;;;;;1.80;1.70;;;-1.00;98.20;;;;;;5051827;28;20492;-74
2023/02/28 05:24:31;;;;;;;1.87;1.77;;;-1.00;98.20;;;;;;5055899;28;20468;-73
2023/02/28 05:26:58;;;;;;;2.00;1.90;;;-1.10;98.20;;;;;;5049862;28;20488;-74
2023/02/28 05:29:24;;;;;;;1.70;1.60;;;-1.10;98.20;;;;;;5061336;28;20486;-73
2023/02/28 05:31:52;;;;;;;1.90;1.80;;;-1.10;98.20;;;;;;5055975;28;20495;-72
2023/02/28 05:34:19;;;;;;;1.80;1.70;;;-1.10;98.20;;;;;;5065045;28;20461;-73
2023/02/28 05:36:46;;;;;;;1.80;1.70;;;-1.10;98.20;;;;;;5040242;28;20535;-74
2023/02/28 05:39:13;;;;;;;1.80;1.70;;;-1.10;98.20;;;;;;5052747;28;20885;-73
2023/02/28 05:41:41;;;;;;;1.83;1.73;;;-1.20;98.20;;;;;;5044409;28;20482;-73
2023/02/28 05:44:09;;;;;;;1.80;1.70;;;-1.20;98.20;;;;;;5052114;28;20485;-73
2023/02/28 05:46:35;;;;;;;1.80;1.70;;;-1.20;98.20;;;;;;5050145;28;20495;-73
2023/02/28 05:49:04;;;;;;;1.80;1.70;;;-1.20;98.20;;;;;;5068975;28;20480;-74
2023/02/28 05:51:30;;;;;;;1.90;1.80;;;-1.20;98.20;;;;;;5039746;28;20478;-73
2023/02/28 05:54:01;;;;;;;1.90;1.80;;;-1.20;98.20;;;;;;5062921;28;20464;-73
2023/02/28 05:56:28;;;;;;;2.00;1.90;;;-1.30;98.20;;;;;;5044748;28;21235;-73
2023/02/28 05:58:54;;;;;;;1.90;1.80;;;-1.30;98.20;;;;;;5049900;28;20461;-73
2023/02/28 06:01:25;;;;;;;1.80;1.70;;;-1.30;98.20;;;;;;5042826;28;20474;-74
2023/02/28 06:03:52;;;;;;;1.90;1.80;;;-1.40;98.20;;;;;;5051422;28;20480;-74
2023/02/28 06:06:20;;;;;;;1.90;1.80;;;-1.40;98.20;;;;;;5040751;28;20492;-74
2023/02/28 06:08:47;;;;;;;1.83;1.73;;;-1.40;98.20;;;;;;5052339;28;20486;-74
2023/02/28 06:11:14;;;;;;;1.83;1.73;;;-1.40;98.20;;;;;;5046198;28;20537;-74
2023/02/28 06:13:41;;;;;;;1.80;1.70;;;-1.40;98.20;;;;;;5054085;28;20481;-74
2023/02/28 06:16:10;;;;;;;1.90;1.80;;;-1.40;98.20;;;;;;5044181;28;20488;-75
2023/02/28 06:18:36;;;;;;;1.93;1.83;;;-1.40;98.20;;;;;;5058988;28;20454;-74
2023/02/28 06:21:03;;;;;;;1.90;1.80;;;-1.50;98.20;;;;;;5051318;28;20844;-74
2023/02/28 06:23:31;;;;;;;2.00;1.90;;;-1.50;98.20;;;;;;5050832;28;20543;-74
2023/02/28 06:25:58;;;;;;;1.90;1.80;;;-1.50;98.20;;;;;;5039056;28;20482;-74
2023/02/28 06:28:26;;;;;;;1.90;1.80;;;-1.50;98.20;;;;;;5053122;28;20470;-74
2023/02/28 06:30:53;;;;;;;1.90;1.80;;;-1.50;98.20;;;;;;5038949;28;20580;-74
2023/02/28 06:33:20;;;;;;;1.90;1.80;;;-1.50;98.20;;;;;;5051012;28;20807;-74
2023/02/28 06:35:48;;;;;;;1.90;1.80;;;-1.40;98.20;;;;;;5059091;28;20489;-74
2023/02/28 06:38:14;;;;;;;1.80;1.70;;;-1.40;98.20;;;;;;5042025;28;21065;-74
2023/02/28 06:40:43;;;;;;;1.80;1.70;;;-1.40;98.20;;;;;;5052889;28;20942;-74
2023/02/28 06:43:13;;;;;;;2.00;1.90;;;-1.40;98.20;;;;;;5056016;28;21018;-75
2023/02/28 06:45:43;;;;;;;2.10;2.00;;;-1.40;98.20;;;;;;5060185;28;20482;-74
2023/02/28 06:48:10;;;;;;;2.00;1.90;;;-1.40;98.20;;;;;;5063679;28;20565;-77
2023/02/28 06:50:37;;;;;;;1.90;1.80;;;-1.40;98.20;;;;;;5056047;28;20489;-76
2023/02/28 06:53:03;;;;;;;1.90;1.80;;;-1.40;98.20;;;;;;5060917;28;20489;-74
2023/02/28 06:55:30;;;;;;;1.90;1.80;;;-1.30;98.20;;;;;;5048579;28;20485;-74
2023/02/28 06:57:58;;;;;;;1.80;1.70;;;-1.20;98.20;;;;;;5039177;28;20490;-76
2023/02/28 07:00:25;;;;;;;1.90;1.80;;;-1.10;98.20;;;;;;5048587;28;20851;-74
2023/02/28 07:02:53;;;;;;;1.90;1.80;;;-1.00;98.20;;;;;;5037962;28;20509;-75
2023/02/28 07:05:20;;;;;;;1.90;1.80;;;-0.90;98.20;;;;;;5047553;28;20488;-74
2023/02/28 07:07:47;;;;;;;1.90;1.80;;;-0.70;98.20;;;;;;5045027;28;20513;-75
2023/02/28 07:10:16;;;;;;;1.80;1.70;;;-0.60;98.20;;;;;;5050477;28;20492;-74
2023/02/28 07:12:43;;;;;;;1.77;1.67;;;-0.50;98.20;;;;;;5053619;22;20495;-74
2023/02/28 07:15:12;;;;;;;1.80;1.70;;;-0.30;98.20;;;;;;5026397;28;20463;-75
2023/02/28 07:17:39;;;;;;;1.80;1.70;;;-0.20;98.20;;;;;;5019007;28;20569;-75
2023/02/28 07:20:07;;;;;;;1.80;1.70;;;0.00;98.20;;;;;;5028091;28;21019;-75
2023/02/28 07:22:33;;;;;;;1.90;1.80;;;0.10;98.20;;;;;;5016683;28;20550;-73
2023/02/28 07:25:00;;;;;;;1.90;1.80;;;0.20;98.20;;;;;;5025817;28;20462;-74
2023/02/28 07:27:27;;;;;;;1.80;1.70;;;0.40;98.20;;;;;;5026443;28;20489;-74
2023/02/28 07:29:54;;;;;;;1.80;1.70;;;0.60;98.20;;;;;;5029752;28;20510;-75
2023/02/28 07:32:23;;;;;;;1.80;1.70;;;0.70;98.20;;;;;;5024479;28;20521;-74
2023/02/28 07:34:50;;;;;;;1.77;1.67;;;0.80;98.20;;;;;;5026980;28;20455;-72
2023/02/28 07:37:16;;;;;;;1.70;1.60;;;0.90;98.20;;;;;;5027587;28;20944;-73
2023/02/28 07:39:43;;;;;;;1.70;1.60;;;1.00;98.20;;;;;;5026669;28;20455;-74
2023/02/28 07:42:11;;;;;;;1.70;1.60;;;1.10;98.20;;;;;;5024031;28;20565;-73
2023/02/28 07:44:40;;;;;;;1.70;1.60;;;1.30;98.00;;;;;;5029095;28;20487;-74
2023/02/28 07:47:07;;;;;;;1.70;1.60;;;1.40;97.20;;;;;;5016068;28;20566;-74
2023/02/28 07:49:36;;;;;;;1.70;1.60;;;1.60;97.00;;;;;;5027163;28;20541;-74
2023/02/28 07:52:03;;;;;;;1.70;1.60;;;1.70;96.40;;;;;;5016370;28;20486;-74
2023/02/28 07:54:30;;;;;;;1.70;1.60;;;1.80;94.70;;;;;;5027310;28;20491;-74
2023/02/28 07:56:57;;;;;;;1.70;1.60;;;2.00;95.30;;;;;;5016659;28;20487;-75
2023/02/28 07:59:24;;;;;;;1.77;1.67;;;2.10;94.60;;;;;;5026895;28;20452;-75
2023/02/28 08:01:51;;;;;;;1.70;1.60;;;2.20;93.20;;;;;;5018220;28;20486;-75
2023/02/28 08:04:17;;;;;;;1.67;1.57;;;2.40;93.60;;;;;;5029341;28;20483;-75
2023/02/28 08:06:47;;;;;;;1.70;1.60;;;2.50;92.90;;;;;;5022922;28;20517;-77
2023/02/28 08:09:14;;;;;;;1.77;1.67;;;2.70;92.20;;;;;;5028187;28;20577;-73
2023/02/28 08:11:41;;;;;;;1.70;1.60;;;2.80;92.10;;;;;;5016963;28;20537;-74
2023/02/28 08:14:07;;;;;;;1.63;1.50;;;2.90;90.00;;;;;;5025252;28;20498;-73
2023/02/28 08:16:34;;;;;;;1.60;1.40;;;3.00;90.60;;;;;;5016617;28;20487;-72
2023/02/28 08:19:01;;;;;;;1.60;1.50;;;3.20;89.40;;;;;;5029267;28;20468;-76
2023/02/28 08:21:28;;;;;;;1.60;1.40;;;3.30;85.70;;;;;;5017497;28;20483;-74
2023/02/28 08:23:56;;;;;;;1.70;1.60;;;3.40;85.00;;;;;;5025574;28;20494;-74
2023/02/28 08:26:23;;;;;;;1.70;1.57;;;3.40;85.20;;;;;;5016960;28;20479;-73
2023/02/28 08:28:50;;;;;;;1.60;1.40;;;3.50;83.20;;;;;;5025672;28;20459;-75
2023/02/28 08:31:17;;;;;;;1.60;1.50;;;3.50;82.60;;;;;;5017203;28;20847;-75
2023/02/28 08:33:45;;;;;;;1.60;1.40;;;3.50;81.60;;;;;;5026019;28;20854;-74
2023/02/28 08:36:12;;;;;;;1.60;1.50;;;3.70;82.90;;;;;;5017460;28;20483;-75
2023/02/28 08:38:39;;;;;;;3.30;3.10;;;3.70;80.20;;;;;;5033758;28;20486;-76
2023/02/28 08:41:10;;;;;;;1.60;1.40;;;3.80;82.00;;;;;;5017213;28;20463;-75
2023/02/28 08:43:37;;;;;;;1.60;1.50;;;4.00;80.30;;;;;;5030899;28;20486;-75
2023/02/28 08:46:05;;;;;;;1.60;1.50;;;4.00;79.00;;;;;;5016408;28;20867;-74
2023/02/28 08:48:33;;;;;;;1.60;1.40;;;4.00;77.90;;;;;;5028133;28;20464;-75
2023/02/28 08:51:02;;;;;;;1.60;1.40;;;4.10;78.50;;;;;;5017257;28;20487;-74
2023/02/28 08:53:29;;;;;;;1.60;1.40;;;4.20;77.00;;;;;;5029177;28;20491;-73
2023/02/28 08:56:00;;;;;;;1.60;1.40;;;4.20;77.40;;;;;;5016473;28;20459;-74
2023/02/28 08:58:28;;;;;;;1.60;1.30;;;4.30;77.40;;;;;;5019704;28;20463;-74
2023/02/28 09:00:55;;;;;;;6.07;5.57;;;4.50;76.30;;;;;;5017326;28;20855;-74
2023/02/28 09:03:23;;;;;;;1.60;1.40;;;4.60;77.80;;;;;;5026920;28;20838;-75
2023/02/28 09:05:54;;;;;;;1.70;1.60;;;4.80;76.20;;;;;;5016469;28;20458;-74
2023/02/28 09:08:20;;;;;;;1.60;1.30;;;4.80;75.40;;;;;;5020996;28;20754;-75
2023/02/28 09:10:47;;;;;;;1.60;1.40;;;4.80;76.30;;;;;;5018349;28;20533;-74
2023/02/28 09:13:14;;;;;;;1.60;1.40;;;4.90;74.60;;;;;;5027169;28;20514;-75
2023/02/28 09:15:42;;;;;;;1.60;1.30;;;4.90;74.20;;;;;;5025897;28;20459;-75
2023/02/28 09:18:09;;;;;;;1.60;1.30;;;4.90;74.00;;;;;;5012560;28;20475;-74
2023/02/28 09:20:47;;;;;;;1.57;1.37;;;5.00;74.10;;;;;;5025814;28;20478;-75
2023/02/28 09:23:14;;;;;;;2.33;2.13;;;5.10;74.40;;;;;;5003097;28;20481;-75
2023/02/28 09:25:47;;;;;;;1.50;1.30;;;5.20;72.90;;;;;;5026968;28;20469;-73
2023/02/28 09:28:15;;;;;;;1.57;1.30;;;5.30;72.60;;;;;;4998618;28;20478;-73
2023/02/28 09:30:44;;;;;;;2.43;2.23;;;5.30;71.80;;;;;;5023274;28;20872;-74
2023/02/28 09:33:11;;;;;;;1.53;1.20;;;5.20;71.40;;;;;;5015238;28;20495;-75
2023/02/28 09:35:38;;;;;;;1.53;1.30;;;5.20;71.60;;;;;;5026830;28;20462;-73
2023/02/28 09:38:07;;;;;;;16.60;15.33;;;5.40;73.20;;;;;;5018748;28;20488;-75
2023/02/28 09:40:38;;;;;;;1.60;1.40;;;5.50;71.90;;;;;;5030313;28;20815;-74
2023/02/28 09:43:06;;;;;;;1.57;1.33;;;5.40;71.20;;;;;;5022242;28;20482;-75
2023/02/28 09:45:36;;;;;;;1.50;1.30;;;5.30;71.20;;;;;;5027161;28;20521;-75
2023/02/28 09:48:10;;;;;;;1.53;1.30;;;5.40;71.50;;;;;;5020325;28;20478;-73
2023/02/28 09:50:41;;;;;;;1.50;1.20;;;5.50;72.50;;;;;;5025699;28;20529;-75
2023/02/28 09:53:17;;;;;;;1.60;1.30;;;5.70;71.90;;;;;;5020614;28;20491;-75
2023/02/28 09:55:46;;;;;;;1.60;1.40;;;5.90;72.70;;;;;;5029586;28;20463;-74
2023/02/28 09:58:21;;;;;;;1.50;1.30;;;6.00;71.90;;;;;;4992920;28;20476;-76
2023/02/28 10:00:57;;;;;;;1.60;1.40;;;5.80;70.50;;;;;;5007726;28;20473;-75
2023/02/28 10:03:32;;;;;;;1.60;1.30;;;5.90;72.50;;;;;;5020897;28;20502;-74
2023/02/28 10:06:07;;;;;;;1.60;1.40;;;6.10;71.30;;;;;;5012245;28;20993;-73
2023/02/28 10:08:41;;;;;;;1.60;1.33;;;6.00;70.10;;;;;;5027617;28;20912;-75
2023/02/28 10:11:10;;;;;;;1.50;1.30;;;6.00;70.60;;;;;;5014173;28;20507;-74
2023/02/28 10:13:41;;;;;;;1.50;1.30;;;6.00;71.10;;;;;;5020157;28;20503;-73
2023/02/28 10:16:12;;;;;;;1.57;1.30;;;6.00;70.60;;;;;;5014049;28;20668;-74
2023/02/28 10:18:47;;;;;;;1.50;1.30;;;6.30;72.20;;;;;;5018655;28;20470;-74
2023/02/28 10:21:29;;;;;;;1.50;1.20;;;6.60;70.30;;;;;;5011359;28;20848;-73
2023/02/28 10:24:04;;;;;;;1.50;1.20;;;6.70;70.30;;;;;;5026297;28;20513;-74
2023/02/28 10:26:33;;;;;;;1.57;1.20;;;6.90;69.90;;;;;;5011226;28;20489;-74
2023/02/28 10:29:00;;;;;;;1.53;1.20;;;7.10;70.10;;;;;;5021872;28;20459;-74
2023/02/28 10:31:27;;;;;;;1.53;1.20;;;7.30;71.50;;;;;;5013508;28;20494;-73
2023/02/28 10:33:56;;;;;;;1.57;1.30;;;7.60;71.50;;;;;;5021833;28;20479;-74
2023/02/28 10:36:23;;;;;;;1.60;1.40;;;7.50;68.70;;;;;;5012167;28;21053;-74
2023/02/28 10:38:51;;;;;;;3.73;2.33;;;7.50;69.70;;;;;;5024423;28;20514;-72
2023/02/28 10:41:28;;;;;;;1.53;1.20;;;7.40;70.40;;;;;;5013143;28;20923;-75
2023/02/28 10:44:14;;;;;;;1.53;1.20;;;7.50;69.10;;;;;;5022021;28;20573;-73
2023/02/28 10:46:42;;;;;;;1.60;1.30;;;7.70;69.90;;;;;;5011295;28;20951;-73
2023/02/28 10:49:18;;;;;;;1.50;1.20;;;7.60;69.90;;;;;;5019307;28;20463;-73
2023/02/28 10:51:46;;;;;;;1.60;1.30;;;7.10;69.10;;;;;;5008598;28;20525;-72
2023/02/28 10:54:19;;;;;;;1.57;1.30;;;6.80;71.20;;;;;;5017984;28;20486;-73
2023/02/28 10:56:46;;;;;;;1.57;1.23;;;6.90;71.50;;;;;;5007937;28;20491;-72
2023/02/28 10:59:30;;;;;;;1.70;1.60;;;6.70;70.20;;;;;;5020066;28;20463;-74
2023/02/28 11:01:57;;;;;;;1.57;1.20;;;6.70;71.20;;;;;;5008353;28;20481;-73
2023/02/28 11:04:39;;;;;;;1.50;1.20;;;7.10;71.10;;;;;;5019361;28;21196;-71
2023/02/28 11:07:16;;;;;;;1.53;1.20;;;7.40;70.30;;;;;;5010335;28;20489;-72
2023/02/28 11:09:47;;;;;;;1.57;1.30;;;7.60;70.20;;;;;;5018613;28;20463;-72
2023/02/28 11:12:23;;;;;;;1.57;1.30;;;7.60;70.40;;;;;;5007139;28;20787;-74
2023/02/28 11:14:53;;;;;;;1.50;1.20;;;7.70;70.10;;;;;;5018539;28;20474;-74
2023/02/28 11:17:22;;;;;;;1.57;1.20;;;7.90;70.10;;;;;;5009181;28;20487;-72
2023/02/28 11:19:53;;;;;;;1.57;1.30;;;8.00;69.70;;;;;;5017841;28;20491;-72
2023/02/28 11:22:24;;;;;;;1.50;1.20;;;8.20;70.30;;;;;;5008557;28;20493;-71
2023/02/28 11:24:54;;;;;;;1.53;1.20;;;8.30;70.00;;;;;;5018956;28;21129;-72
2023/02/28 11:27:46;;;;;;;1.50;1.20;;;8.20;69.40;;;;;;5008302;28;20498;-72
2023/02/28 11:30:36;;;;;;;1.50;1.20;;;8.50;69.60;;;;;;5017724;28;21280;-71
2023/02/28 11:33:22;;;;;;;1.50;1.20;;;8.60;68.40;;;;;;5005060;28;20581;-72
2023/02/28 11:35:52;;;;;;;1.50;1.10;;;8.40;68.50;;;;;;5007143;28;20524;-72
2023/02/28 11:38:19;;;;;;;1.57;1.10;;;8.20;68.00;;;;;;5019633;28;20463;-74
2023/02/28 11:40:55;;;;;;;1.50;1.10;;;8.00;68.50;;;;;;5019777;28;20462;-73
2023/02/28 11:43:31;;;;;;;1.50;1.20;;;7.80;68.10;;;;;;4992838;28;20525;-74
2023/02/28 11:46:10;;;;;;;1.50;1.10;;;7.80;68.30;;;;;;5008235;28;20984;-73
2023/02/28 11:48:48;;;;;;;1.57;1.20;;;7.90;69.00;;;;;;5018140;28;20962;-75
2023/02/28 11:51:24;;;;;;;1.60;1.30;;;7.60;68.60;;;;;;5011102;28;20486;-73
2023/02/28 11:54:22;;;;;;;1.50;1.20;;;7.50;69.40;;;;;;5018555;28;20482;-73
2023/02/28 11:56:55;;;;;;;1.50;1.20;;;7.70;70.10;;;;;;5004333;28;20475;-74
2023/02/28 11:59:47;;;;;;;1.50;1.20;;;7.80;70.10;;;;;;5017006;28;20482;-72
2023/02/28 12:02:26;;;;;;;1.53;1.20;;;7.90;69.20;;;;;;5007704;28;21109;-72
2023/02/28 12:05:20;;;;;;;1.57;1.20;;;8.10;68.90;;;;;;5016511;28;20455;-73
2023/02/28 12:08:01;;;;;;;1.57;1.20;;;8.20;68.80;;;;;;5012451;28;20478;-74
2023/02/28 12:10:31;;;;;;;1.53;1.20;;;8.40;68.90;;;;;;5018265;28;21065;-72
2023/02/28 12:13:09;;;;;;;1.50;1.20;;;8.40;68.00;;;;;;5005574;28;20483;-73
2023/02/28 12:16:07;;;;;;;1.53;1.23;;;8.40;69.00;;;;;;5017314;28;20631;-73
2023/02/28 12:18:50;;;;;;;1.50;1.20;;;8.60;68.60;;;;;;4996727;28;21018;-73
2023/02/28 12:21:31;;;;;;;1.50;1.10;;;8.20;66.90;;;;;;5009099;28;20841;-72
2023/02/28 12:24:24;;;;;;;1.53;1.30;;;7.40;67.50;;;;;;5018535;28;20983;-74
2023/02/28 12:26:54;;;;;;;1.50;1.10;;;7.20;69.10;;;;;;5004971;28;20491;-73
2023/02/28 12:29:25;;;;;;;1.53;1.30;;;7.40;69.40;;;;;;5015997;28;20763;-73
2023/02/28 12:31:56;;;;;;;1.53;1.20;;;7.80;69.70;;;;;;5008142;28;20581;-74
2023/02/28 12:34:29;;;;;;;1.60;1.30;;;7.90;68.20;;;;;;5018838;28;20486;-73
2023/02/28 12:36:59;;;;;;;1.60;1.30;;;7.40;68.20;;;;;;5007729;28;20888;-73
2023/02/28 12:39:32;;;;;;;1.50;1.17;;;7.10;70.30;;;;;;5017162;28;20494;-73
2023/02/28 12:42:03;;;;;;;1.50;1.10;;;7.20;70.90;;;;;;5009831;28;20898;-71
2023/02/28 12:44:34;;;;;;;1.60;1.23;;;7.40;70.40;;;;;;5017703;28;20459;-71
2023/02/28 12:47:05;;;;;;;1.50;1.20;;;7.40;69.50;;;;;;5005094;28;20867;-71
2023/02/28 12:49:35;;;;;;;1.50;1.20;;;7.30;68.80;;;;;;5017096;28;20513;-71
2023/02/28 12:52:04;;;;;;;1.53;1.20;;;7.40;68.60;;;;;;5006594;28;20479;-72
2023/02/28 12:54:41;;;;;;;2.27;1.93;;;7.40;67.70;;;;;;5014994;28;20535;-72
2023/02/28 12:57:13;;;;;;;1.50;1.20;;;7.50;68.80;;;;;;4999180;28;21153;-73
2023/02/28 12:59:45;;;;;;;1.50;1.20;;;7.80;68.70;;;;;;5019423;28;20565;-72
2023/02/28 13:03:02;;;;;;;1.50;1.10;;;8.00;67.50;;;;;;5010463;28;20490;-74
2023/02/28 13:05:53;;;;;;;1.57;1.20;;;8.20;67.30;;;;;;5014364;28;20467;-73
2023/02/28 13:09:00;;;;;;;1.50;1.20;;;8.40;69.10;;;;;;5005291;28;20971;-72
2023/02/28 13:11:32;;;;;;;1.53;1.20;;;8.30;66.50;;;;;;5002437;28;20569;-72
2023/02/28 13:14:01;;;;;;;1.50;1.10;;;8.10;67.70;;;;;;5023317;28;20487;-73